AAL2689 KPHX-KLAX
Flight info
| Callsign | AAL2689 |
|---|---|
| Flight time | 0h 59m |
| Altitude | 36000 |
| Route | KEENS3 WLVRN ESTWD HLYWD1 |
| Aircraft | A319/M-SDE3FGHIRWY/LB1 |
Departure
| Time | 2026-05-05 16:37 |
|---|---|
| Airport | Phoenix Sky Harbor International Airport (KPHX) |
Arrival
| Time | 2026-05-05 17:36 |
|---|---|
| Airport | Los Angeles International Airport (KLAX) |
| Time | Latitude | Longitude | Altitude | Speed | Heading |
|---|---|---|---|---|---|
| 2026-05-05 16:09 | 33.43722 | -111.99877 | 1125 ft | 0 kts | 270° |
| 2026-05-05 16:28 | 33.43722 | -111.99854 | 1124 ft | 4 kts | 272° |
| 2026-05-05 16:28 | 33.43718 | -111.99829 | 1118 ft | 4 kts | 334° |
| 2026-05-05 16:28 | 33.43700 | -111.99826 | 1119 ft | 2 kts | 0° |
| 2026-05-05 16:29 | 33.43698 | -111.99826 | 1124 ft | 0 kts | 0° |
| 2026-05-05 16:30 | 33.43703 | -111.99826 | 1124 ft | 2 kts | 0° |
| 2026-05-05 16:30 | 33.43738 | -111.99826 | 1119 ft | 8 kts | 360° |
| 2026-05-05 16:31 | 33.43805 | -111.99827 | 1125 ft | 11 kts | 360° |
| 2026-05-05 16:31 | 33.43882 | -111.99826 | 1125 ft | 10 kts | 3° |
| 2026-05-05 16:31 | 33.43904 | -111.99770 | 1126 ft | 10 kts | 91° |
| 2026-05-05 16:31 | 33.43904 | -111.99673 | 1126 ft | 13 kts | 90° |
| 2026-05-05 16:32 | 33.43903 | -111.99560 | 1126 ft | 14 kts | 90° |
| 2026-05-05 16:32 | 33.43903 | -111.99434 | 1126 ft | 16 kts | 90° |
| 2026-05-05 16:32 | 33.43904 | -111.99316 | 1118 ft | 11 kts | 90° |
| 2026-05-05 16:32 | 33.43894 | -111.99237 | 1118 ft | 9 kts | 130° |
| 2026-05-05 16:33 | 33.43816 | -111.99226 | 1116 ft | 14 kts | 179° |
| 2026-05-05 16:33 | 33.43716 | -111.99226 | 1118 ft | 15 kts | 180° |
| 2026-05-05 16:33 | 33.43602 | -111.99226 | 1121 ft | 17 kts | 180° |
| 2026-05-05 16:33 | 33.43495 | -111.99226 | 1124 ft | 13 kts | 180° |
| 2026-05-05 16:34 | 33.43430 | -111.99241 | 1122 ft | 9 kts | 203° |
| 2026-05-05 16:34 | 33.43362 | -111.99246 | 1118 ft | 11 kts | 180° |
| 2026-05-05 16:34 | 33.43275 | -111.99246 | 1123 ft | 14 kts | 180° |
| 2026-05-05 16:34 | 33.43219 | -111.99253 | 1123 ft | 5 kts | 204° |
| 2026-05-05 16:35 | 33.43189 | -111.99284 | 1124 ft | 6 kts | 225° |
| 2026-05-05 16:35 | 33.43158 | -111.99322 | 1140 ft | 7 kts | 224° |
| 2026-05-05 16:35 | 33.43115 | -111.99346 | 1136 ft | 6 kts | 200° |
| 2026-05-05 16:35 | 33.43104 | -111.99379 | 1133 ft | 3 kts | 268° |
| 2026-05-05 16:36 | 33.43104 | -111.99389 | 1132 ft | 4 kts | 268° |
| 2026-05-05 16:36 | 33.43099 | -111.99633 | 1133 ft | 67 kts | 269° |
| 2026-05-05 16:36 | 33.43105 | -112.00480 | 1131 ft | 133 kts | 270° |
| 2026-05-05 16:36 | 33.43102 | -112.01737 | 1485 ft | 157 kts | 270° |
| 2026-05-05 16:37 | 33.43064 | -112.03056 | 2161 ft | 159 kts | 264° |
| 2026-05-05 16:37 | 33.42995 | -112.04375 | 2882 ft | 159 kts | 264° |
| 2026-05-05 16:37 | 33.42922 | -112.05761 | 3328 ft | 177 kts | 265° |
| 2026-05-05 16:37 | 33.42839 | -112.07328 | 3674 ft | 200 kts | 263° |
| 2026-05-05 16:38 | 33.42414 | -112.09012 | 4047 ft | 224 kts | 247° |
| 2026-05-05 16:38 | 33.41818 | -112.10848 | 4584 ft | 248 kts | 248° |
| 2026-05-05 16:38 | 33.41191 | -112.12820 | 5484 ft | 258 kts | 248° |
| 2026-05-05 16:38 | 33.40550 | -112.14862 | 6534 ft | 265 kts | 247° |
| 2026-05-05 16:39 | 33.39898 | -112.16945 | 7643 ft | 269 kts | 247° |
| 2026-05-05 16:39 | 33.39347 | -112.19096 | 8776 ft | 274 kts | 257° |
| 2026-05-05 16:39 | 33.39292 | -112.21397 | 9865 ft | 281 kts | 273° |
| 2026-05-05 16:39 | 33.39631 | -112.23760 | 10504 ft | 299 kts | 276° |
| 2026-05-05 16:40 | 33.40007 | -112.26280 | 11082 ft | 314 kts | 276° |
| 2026-05-05 16:40 | 33.40398 | -112.28876 | 11919 ft | 320 kts | 276° |
| 2026-05-05 16:40 | 33.40795 | -112.31512 | 12780 ft | 324 kts | 276° |
| 2026-05-05 16:40 | 33.41195 | -112.34176 | 13646 ft | 328 kts | 276° |
| 2026-05-05 16:41 | 33.41598 | -112.36880 | 14426 ft | 331 kts | 275° |
| 2026-05-05 16:41 | 33.41997 | -112.39570 | 15187 ft | 334 kts | 275° |
| 2026-05-05 16:41 | 33.42409 | -112.42350 | 16004 ft | 336 kts | 275° |
| 2026-05-05 16:41 | 33.42816 | -112.45108 | 16798 ft | 337 kts | 275° |
| 2026-05-05 16:42 | 33.43217 | -112.47848 | 17597 ft | 339 kts | 275° |
| 2026-05-05 16:42 | 33.43625 | -112.50639 | 18347 ft | 341 kts | 274° |
| 2026-05-05 16:42 | 33.43902 | -112.52533 | 18808 ft | 343 kts | 274° |
| 2026-05-05 16:42 | 33.44315 | -112.55353 | 19517 ft | 344 kts | 274° |
| 2026-05-05 16:43 | 33.44729 | -112.58172 | 20249 ft | 345 kts | 274° |
| 2026-05-05 16:43 | 33.45046 | -112.61927 | 21230 ft | 340 kts | 265° |
| 2026-05-05 16:43 | 33.45072 | -112.63838 | 21728 ft | 340 kts | 264° |
| 2026-05-05 16:43 | 33.45109 | -112.66672 | 22458 ft | 341 kts | 264° |
| 2026-05-05 16:44 | 33.45145 | -112.69512 | 23183 ft | 342 kts | 264° |
| 2026-05-05 16:44 | 33.45178 | -112.72360 | 23839 ft | 343 kts | 263° |
| 2026-05-05 16:44 | 33.45212 | -112.75215 | 24424 ft | 343 kts | 263° |
| 2026-05-05 16:44 | 33.45270 | -112.78076 | 25006 ft | 346 kts | 266° |
| 2026-05-05 16:45 | 33.45692 | -112.80963 | 25571 ft | 359 kts | 276° |
| 2026-05-05 16:45 | 33.46593 | -112.83802 | 26110 ft | 369 kts | 282° |
| 2026-05-05 16:45 | 33.47596 | -112.86631 | 26647 ft | 370 kts | 281° |
| 2026-05-05 16:45 | 33.48587 | -112.89434 | 27169 ft | 371 kts | 281° |
| 2026-05-05 16:46 | 33.49589 | -112.92283 | 27684 ft | 372 kts | 280° |
| 2026-05-05 16:46 | 33.50591 | -112.95143 | 28206 ft | 373 kts | 279° |
| 2026-05-05 16:46 | 33.51594 | -112.98014 | 28725 ft | 374 kts | 279° |
| 2026-05-05 16:46 | 33.52598 | -113.00897 | 29243 ft | 376 kts | 279° |
| 2026-05-05 16:47 | 33.53605 | -113.03793 | 29789 ft | 378 kts | 279° |
| 2026-05-05 16:47 | 33.54620 | -113.06716 | 30195 ft | 381 kts | 279° |
| 2026-05-05 16:47 | 33.55642 | -113.09656 | 30472 ft | 384 kts | 279° |
| 2026-05-05 16:47 | 33.56672 | -113.12614 | 30925 ft | 385 kts | 279° |
| 2026-05-05 16:48 | 33.57706 | -113.15579 | 31334 ft | 386 kts | 279° |
| 2026-05-05 16:48 | 33.58745 | -113.18558 | 31736 ft | 387 kts | 279° |
| 2026-05-05 16:48 | 33.59784 | -113.21541 | 32133 ft | 388 kts | 279° |
| 2026-05-05 16:48 | 33.60823 | -113.24533 | 32553 ft | 388 kts | 279° |
| 2026-05-05 16:49 | 33.61860 | -113.27512 | 33108 ft | 385 kts | 279° |
| 2026-05-05 16:49 | 33.62888 | -113.30465 | 33694 ft | 382 kts | 278° |
| 2026-05-05 16:49 | 33.63906 | -113.33400 | 34219 ft | 379 kts | 278° |
| 2026-05-05 16:49 | 33.64912 | -113.36308 | 34662 ft | 378 kts | 279° |
| 2026-05-05 16:50 | 33.65915 | -113.39219 | 35033 ft | 378 kts | 279° |
| 2026-05-05 16:50 | 33.66916 | -113.42139 | 35386 ft | 378 kts | 279° |
| 2026-05-05 16:50 | 33.67917 | -113.45061 | 35814 ft | 380 kts | 279° |
| 2026-05-05 16:50 | 33.68923 | -113.48005 | 35963 ft | 382 kts | 280° |
| 2026-05-05 16:51 | 33.70927 | -113.53801 | 36011 ft | 371 kts | 280° |
| 2026-05-05 16:51 | 33.71916 | -113.56679 | 36134 ft | 375 kts | 279° |
| 2026-05-05 16:51 | 33.72906 | -113.59584 | 36426 ft | 376 kts | 280° |
| 2026-05-05 16:52 | 33.73900 | -113.62501 | 36743 ft | 377 kts | 280° |
| 2026-05-05 16:52 | 33.74894 | -113.65421 | 37055 ft | 378 kts | 280° |
| 2026-05-05 16:52 | 33.75890 | -113.68346 | 37290 ft | 379 kts | 281° |
| 2026-05-05 16:52 | 33.76892 | -113.71278 | 37567 ft | 380 kts | 281° |
| 2026-05-05 16:53 | 33.77896 | -113.74223 | 37852 ft | 381 kts | 281° |
| 2026-05-05 16:53 | 33.78902 | -113.77177 | 37917 ft | 382 kts | 282° |
| 2026-05-05 16:53 | 33.80930 | -113.83098 | 37915 ft | 383 kts | 282° |
| 2026-05-05 16:54 | 33.82961 | -113.89025 | 37917 ft | 383 kts | 282° |
| 2026-05-05 16:54 | 33.84988 | -113.94988 | 37911 ft | 388 kts | 282° |
| 2026-05-05 16:55 | 33.87022 | -114.01021 | 37914 ft | 390 kts | 282° |
| 2026-05-05 16:55 | 33.89065 | -114.07072 | 37941 ft | 390 kts | 282° |
| 2026-05-05 16:56 | 33.90833 | -114.13180 | 37922 ft | 379 kts | 272° |
| 2026-05-05 16:56 | 33.91879 | -114.19353 | 37915 ft | 379 kts | 272° |
| 2026-05-05 16:57 | 33.92934 | -114.25571 | 37918 ft | 379 kts | 273° |
| 2026-05-05 16:57 | 33.93990 | -114.31797 | 37912 ft | 379 kts | 272° |
| 2026-05-05 16:58 | 33.95040 | -114.38026 | 37906 ft | 380 kts | 272° |
| 2026-05-05 16:58 | 33.96092 | -114.44263 | 37908 ft | 380 kts | 273° |
| 2026-05-05 16:59 | 33.97142 | -114.50526 | 37901 ft | 382 kts | 274° |
| 2026-05-05 16:59 | 33.98198 | -114.56824 | 37888 ft | 384 kts | 274° |
| 2026-05-05 17:00 | 33.99253 | -114.63149 | 37887 ft | 386 kts | 274° |
| 2026-05-05 17:00 | 34.00310 | -114.69501 | 37896 ft | 387 kts | 274° |
| 2026-05-05 17:01 | 34.01357 | -114.75862 | 37899 ft | 387 kts | 274° |
| 2026-05-05 17:01 | 34.02410 | -114.82231 | 37906 ft | 388 kts | 274° |
| 2026-05-05 17:02 | 34.03456 | -114.88613 | 37905 ft | 388 kts | 274° |
| 2026-05-05 17:02 | 34.04497 | -114.94995 | 37907 ft | 388 kts | 273° |
| 2026-05-05 17:03 | 34.05535 | -115.01381 | 37925 ft | 388 kts | 274° |
| 2026-05-05 17:03 | 34.06587 | -115.07814 | 37924 ft | 393 kts | 275° |
| 2026-05-05 17:04 | 34.07651 | -115.14308 | 37906 ft | 396 kts | 276° |
| 2026-05-05 17:04 | 34.08708 | -115.20838 | 37901 ft | 398 kts | 276° |
| 2026-05-05 17:05 | 34.09765 | -115.27403 | 37905 ft | 399 kts | 276° |
| 2026-05-05 17:05 | 34.10825 | -115.33993 | 37913 ft | 400 kts | 276° |
| 2026-05-05 17:06 | 34.11880 | -115.40554 | 37908 ft | 401 kts | 276° |
| 2026-05-05 17:06 | 34.12937 | -115.47168 | 37913 ft | 402 kts | 276° |
| 2026-05-05 17:07 | 34.13993 | -115.53799 | 37923 ft | 402 kts | 276° |
| 2026-05-05 17:07 | 34.15042 | -115.60431 | 37920 ft | 403 kts | 276° |
| 2026-05-05 17:08 | 34.16069 | -115.67071 | 37935 ft | 401 kts | 273° |
| 2026-05-05 17:08 | 34.15929 | -115.73709 | 37936 ft | 395 kts | 261° |
| 2026-05-05 17:09 | 34.15282 | -115.80305 | 37944 ft | 396 kts | 261° |
| 2026-05-05 17:09 | 34.14962 | -115.83638 | 37775 ft | 406 kts | 261° |
| 2026-05-05 17:09 | 34.14635 | -115.87055 | 37528 ft | 412 kts | 261° |
| 2026-05-05 17:10 | 34.14305 | -115.90504 | 37284 ft | 413 kts | 261° |
| 2026-05-05 17:10 | 34.13976 | -115.93935 | 37040 ft | 412 kts | 261° |
| 2026-05-05 17:10 | 34.13643 | -115.97360 | 36811 ft | 411 kts | 261° |
| 2026-05-05 17:10 | 34.13310 | -116.00774 | 36431 ft | 408 kts | 261° |
| 2026-05-05 17:11 | 34.12979 | -116.04162 | 35930 ft | 406 kts | 261° |
| 2026-05-05 17:11 | 34.12647 | -116.07534 | 35426 ft | 404 kts | 261° |
| 2026-05-05 17:11 | 34.12316 | -116.10891 | 34922 ft | 402 kts | 261° |
| 2026-05-05 17:11 | 34.11984 | -116.14235 | 34411 ft | 401 kts | 261° |
| 2026-05-05 17:12 | 34.11652 | -116.17570 | 33883 ft | 400 kts | 261° |
| 2026-05-05 17:12 | 34.11323 | -116.20886 | 33343 ft | 396 kts | 261° |
| 2026-05-05 17:12 | 34.10997 | -116.24171 | 32852 ft | 392 kts | 261° |
| 2026-05-05 17:12 | 34.10671 | -116.27424 | 32301 ft | 389 kts | 261° |
| 2026-05-05 17:13 | 34.10347 | -116.30652 | 31823 ft | 386 kts | 261° |
| 2026-05-05 17:13 | 34.10018 | -116.33850 | 31407 ft | 382 kts | 261° |
| 2026-05-05 17:13 | 34.09684 | -116.37010 | 30986 ft | 378 kts | 261° |
| 2026-05-05 17:13 | 34.09347 | -116.40143 | 30570 ft | 376 kts | 261° |
| 2026-05-05 17:14 | 34.09009 | -116.43258 | 30145 ft | 373 kts | 261° |
| 2026-05-05 17:14 | 34.08673 | -116.46355 | 29682 ft | 371 kts | 261° |
| 2026-05-05 17:14 | 34.08337 | -116.49434 | 29255 ft | 369 kts | 261° |
| 2026-05-05 17:14 | 34.08001 | -116.52496 | 28855 ft | 367 kts | 261° |
| 2026-05-05 17:15 | 34.07671 | -116.55535 | 28444 ft | 365 kts | 262° |
| 2026-05-05 17:15 | 34.07343 | -116.58554 | 28039 ft | 363 kts | 262° |
| 2026-05-05 17:15 | 34.07031 | -116.61566 | 27633 ft | 361 kts | 263° |
| 2026-05-05 17:15 | 34.06747 | -116.64563 | 27235 ft | 359 kts | 263° |
| 2026-05-05 17:16 | 34.06478 | -116.67544 | 26837 ft | 356 kts | 263° |
| 2026-05-05 17:16 | 34.06216 | -116.70502 | 26435 ft | 354 kts | 263° |
| 2026-05-05 17:16 | 34.05955 | -116.73444 | 26038 ft | 353 kts | 263° |
| 2026-05-05 17:16 | 34.05693 | -116.76338 | 25649 ft | 350 kts | 263° |
| 2026-05-05 17:17 | 34.05423 | -116.79284 | 25261 ft | 348 kts | 263° |
| 2026-05-05 17:17 | 34.05152 | -116.82167 | 24867 ft | 345 kts | 263° |
| 2026-05-05 17:17 | 34.04880 | -116.85032 | 24476 ft | 343 kts | 263° |
| 2026-05-05 17:17 | 34.04606 | -116.87891 | 24098 ft | 344 kts | 263° |
| 2026-05-05 17:18 | 34.04311 | -116.90759 | 23670 ft | 346 kts | 262° |
| 2026-05-05 17:18 | 34.03965 | -116.93589 | 23142 ft | 346 kts | 261° |
| 2026-05-05 17:18 | 34.03587 | -116.96445 | 22662 ft | 344 kts | 261° |
| 2026-05-05 17:18 | 34.03202 | -116.99278 | 22204 ft | 342 kts | 261° |
| 2026-05-05 17:19 | 34.02817 | -117.02098 | 21739 ft | 340 kts | 261° |
| 2026-05-05 17:19 | 34.02444 | -117.04911 | 21273 ft | 339 kts | 262° |
| 2026-05-05 17:19 | 34.02098 | -117.07717 | 20811 ft | 338 kts | 262° |
| 2026-05-05 17:19 | 34.01769 | -117.10506 | 20383 ft | 335 kts | 262° |
| 2026-05-05 17:20 | 34.01446 | -117.13278 | 19898 ft | 333 kts | 262° |
| 2026-05-05 17:20 | 34.01124 | -117.16033 | 19457 ft | 330 kts | 262° |
| 2026-05-05 17:20 | 34.00804 | -117.18748 | 18991 ft | 326 kts | 263° |
| 2026-05-05 17:20 | 34.00485 | -117.21439 | 18620 ft | 323 kts | 263° |
| 2026-05-05 17:21 | 34.00169 | -117.24103 | 18165 ft | 320 kts | 262° |
| 2026-05-05 17:21 | 33.99853 | -117.26754 | 17678 ft | 318 kts | 263° |
| 2026-05-05 17:21 | 33.99538 | -117.29378 | 17237 ft | 315 kts | 263° |
| 2026-05-05 17:22 | 33.98920 | -117.34559 | 16374 ft | 310 kts | 263° |
| 2026-05-05 17:22 | 33.98619 | -117.37128 | 15958 ft | 309 kts | 263° |
| 2026-05-05 17:22 | 33.98319 | -117.39686 | 15531 ft | 307 kts | 263° |
| 2026-05-05 17:22 | 33.98018 | -117.42226 | 15111 ft | 305 kts | 263° |
| 2026-05-05 17:23 | 33.97720 | -117.44745 | 14696 ft | 303 kts | 263° |
| 2026-05-05 17:23 | 33.97434 | -117.47253 | 14280 ft | 301 kts | 266° |
| 2026-05-05 17:23 | 33.97450 | -117.49753 | 13863 ft | 298 kts | 277° |
| 2026-05-05 17:23 | 33.97838 | -117.52198 | 13362 ft | 297 kts | 283° |
| 2026-05-05 17:24 | 33.98278 | -117.54616 | 12909 ft | 295 kts | 283° |
| 2026-05-05 17:24 | 33.98708 | -117.57023 | 12457 ft | 293 kts | 282° |
| 2026-05-05 17:24 | 33.99131 | -117.59416 | 12009 ft | 291 kts | 282° |
| 2026-05-05 17:24 | 33.99549 | -117.61790 | 11560 ft | 288 kts | 282° |
| 2026-05-05 17:25 | 33.99962 | -117.64148 | 11123 ft | 287 kts | 282° |
| 2026-05-05 17:25 | 34.00236 | -117.65707 | 10871 ft | 287 kts | 282° |
| 2026-05-05 17:25 | 34.00575 | -117.68889 | 10398 ft | 286 kts | 270° |
| 2026-05-05 17:25 | 34.00398 | -117.71254 | 10216 ft | 282 kts | 264° |
| 2026-05-05 17:26 | 34.00168 | -117.73557 | 10090 ft | 280 kts | 264° |
| 2026-05-05 17:26 | 33.99938 | -117.75915 | 9881 ft | 281 kts | 264° |
| 2026-05-05 17:26 | 33.99715 | -117.78204 | 9468 ft | 277 kts | 264° |
| 2026-05-05 17:26 | 33.99490 | -117.80507 | 9115 ft | 277 kts | 264° |
| 2026-05-05 17:27 | 33.99266 | -117.82796 | 8767 ft | 274 kts | 264° |
| 2026-05-05 17:27 | 33.99043 | -117.85090 | 8415 ft | 270 kts | 264° |
| 2026-05-05 17:27 | 33.98828 | -117.87294 | 8085 ft | 267 kts | 264° |
| 2026-05-05 17:27 | 33.98612 | -117.89495 | 7739 ft | 263 kts | 264° |
| 2026-05-05 17:28 | 33.98402 | -117.91665 | 7411 ft | 259 kts | 264° |
| 2026-05-05 17:28 | 33.98194 | -117.93801 | 7089 ft | 255 kts | 264° |
| 2026-05-05 17:28 | 33.97988 | -117.95905 | 6774 ft | 251 kts | 264° |
| 2026-05-05 17:28 | 33.97783 | -117.97990 | 6458 ft | 250 kts | 264° |
| 2026-05-05 17:29 | 33.97571 | -118.00093 | 6146 ft | 257 kts | 263° |
| 2026-05-05 17:29 | 33.97352 | -118.02232 | 5977 ft | 259 kts | 264° |
| 2026-05-05 17:29 | 33.97138 | -118.04386 | 5653 ft | 258 kts | 263° |
| 2026-05-05 17:29 | 33.96928 | -118.06515 | 5316 ft | 253 kts | 263° |
| 2026-05-05 17:30 | 33.96722 | -118.08587 | 4976 ft | 244 kts | 264° |
| 2026-05-05 17:30 | 33.96524 | -118.10573 | 4657 ft | 234 kts | 264° |
| 2026-05-05 17:30 | 33.96334 | -118.12483 | 4337 ft | 225 kts | 263° |
| 2026-05-05 17:30 | 33.96151 | -118.14321 | 4048 ft | 217 kts | 263° |
| 2026-05-05 17:31 | 33.96033 | -118.15504 | 3856 ft | 213 kts | 263° |
| 2026-05-05 17:31 | 33.95859 | -118.17239 | 3584 ft | 205 kts | 263° |
| 2026-05-05 17:31 | 33.95691 | -118.18915 | 3319 ft | 198 kts | 263° |
| 2026-05-05 17:31 | 33.95528 | -118.20540 | 3063 ft | 192 kts | 263° |
| 2026-05-05 17:32 | 33.95370 | -118.22113 | 2802 ft | 187 kts | 262° |
| 2026-05-05 17:32 | 33.95216 | -118.23648 | 2554 ft | 182 kts | 262° |
| 2026-05-05 17:32 | 33.95065 | -118.25150 | 2318 ft | 178 kts | 262° |
| 2026-05-05 17:32 | 33.94919 | -118.26595 | 2065 ft | 170 kts | 262° |
| 2026-05-05 17:33 | 33.94781 | -118.27968 | 1842 ft | 161 kts | 263° |
| 2026-05-05 17:33 | 33.94649 | -118.29270 | 1637 ft | 153 kts | 262° |
| 2026-05-05 17:33 | 33.94527 | -118.30475 | 1445 ft | 138 kts | 262° |
| 2026-05-05 17:33 | 33.94417 | -118.31571 | 1271 ft | 128 kts | 262° |
| 2026-05-05 17:34 | 33.94312 | -118.32619 | 1089 ft | 125 kts | 262° |
| 2026-05-05 17:34 | 33.94211 | -118.33641 | 951 ft | 122 kts | 262° |
| 2026-05-05 17:34 | 33.94107 | -118.34655 | 756 ft | 122 kts | 262° |
| 2026-05-05 17:34 | 33.94009 | -118.35670 | 577 ft | 122 kts | 263° |
| 2026-05-05 17:35 | 33.93904 | -118.36684 | 403 ft | 122 kts | 264° |
| 2026-05-05 17:35 | 33.93797 | -118.37694 | 254 ft | 121 kts | 263° |
| 2026-05-05 17:35 | 33.93696 | -118.38688 | 124 ft | 119 kts | 263° |
| 2026-05-05 17:35 | 33.93602 | -118.39596 | 94 ft | 89 kts | 263° |
| 2026-05-05 17:36 | 33.93564 | -118.40032 | 96 ft | 30 kts | 271° |
| 2026-05-05 17:36 | 33.93588 | -118.40254 | 95 ft | 19 kts | 287° |
| 2026-05-05 17:36 | 33.93623 | -118.40379 | 95 ft | 16 kts | 283° |
| 2026-05-05 17:36 | 33.93619 | -118.40515 | 97 ft | 17 kts | 261° |
| 2026-05-05 17:37 | 33.93602 | -118.40664 | 95 ft | 19 kts | 263° |
| 2026-05-05 17:37 | 33.93598 | -118.40815 | 95 ft | 14 kts | 283° |
| 2026-05-05 17:37 | 33.93638 | -118.40892 | 95 ft | 10 kts | 327° |
| 2026-05-05 17:37 | 33.93717 | -118.40906 | 96 ft | 13 kts | 354° |
| 2026-05-05 17:38 | 33.93809 | -118.40918 | 93 ft | 13 kts | 353° |
| 2026-05-05 17:38 | 33.93866 | -118.40901 | 93 ft | 9 kts | 53° |
| 2026-05-05 17:38 | 33.93877 | -118.40841 | 93 ft | 8 kts | 75° |
| 2026-05-05 17:38 | 33.93923 | -118.40816 | 95 ft | 8 kts | 334° |
| 2026-05-05 17:39 | 33.93945 | -118.40871 | 93 ft | 7 kts | 290° |
| 2026-05-05 17:39 | 33.93958 | -118.40913 | 93 ft | 4 kts | 290° |
| 2026-05-05 17:39 | 33.93963 | -118.40930 | 93 ft | 0 kts | 290° |